VTPM

Mae Sot Airport

Thailand
TAF VTPM 210500Z 2106/2206 24005KT 7000 SCT035 BECMG 2120/2122 4000 BR BECMG 2202/2204 7000 NSW
Issued Valid From Valid To
Apr-21 @ 05:00 UTC
(5 hours ago)
Apr-21 @ 06:00 UTC
(4 hours ago)
Apr-22 @ 06:00 UTC
(in 20 hours)
Apr-21 @ 06:00 to Apr-21 @ 20:00
TAF VTPM 210500Z 2106/2206 24005KT 7000 SCT035
Wind Visibility Clouds
240° at 5 knots 7,001 meters
  • Scattered at 3,500' AGL
Becoming Apr-21 @ 20:00 to Apr-22 @ 02:00
BECMG 2120/2122 4000 BR
Wind Visibility Clouds Conditions
240° at 5 knots 4,007 meters
  • Scattered at 3,500' AGL
  • Mist
Becoming Apr-22 @ 02:00 to Apr-22 @ 06:00
BECMG 2202/2204 7000 NSW
Wind Visibility Clouds Conditions
240° at 5 knots 7,001 meters
  • Scattered at 3,500' AGL
TAF VTPM 210500Z 2106/2206 24005KT 7000 SCT035 BECMG 2120/2122 4000 BR BECMG 2202/2204 7000 NSW
Issued Apr-21 @ 05:00 UTC
(5 hours ago)
Valid From Apr-21 @ 06:00 UTC
(4 hours ago)
Valid To Apr-22 @ 06:00 UTC
(in 20 hours)
Apr-21 @ 06:00 - Apr-21 @ 20:00
Wind Visibility
240° at 5 knots 7,001 meters
Clouds
  • Scattered at 3,500' AGL
Becoming Apr-21 @ 20:00 - Apr-22 @ 02:00
Wind Visibility
240° at 5 knots 4,007 meters
Clouds
  • Scattered at 3,500' AGL
Conditions
  • Mist
Becoming Apr-22 @ 02:00 - Apr-22 @ 06:00
Wind Visibility
240° at 5 knots 7,001 meters
Clouds
  • Scattered at 3,500' AGL
Conditions